sensor_id;sensor_type;location;lat;lon;timestamp;pressure;altitude;pressure_sealevel;temperature;humidity
61384;BME280;63511;49.346;8.798;2023-02-21T00:00:30;100723.75;;;7.32;75.86
61384;BME280;63511;49.346;8.798;2023-02-21T00:03:16;100729.91;;;7.64;74.29
61384;BME280;63511;49.346;8.798;2023-02-21T00:06:02;100732.19;;;7.61;74.41
61384;BME280;63511;49.346;8.798;2023-02-21T00:08:46;100739.78;;;7.52;75.32
61384;BME280;63511;49.346;8.798;2023-02-21T00:11:30;100737.03;;;7.49;75.97
61384;BME280;63511;49.346;8.798;2023-02-21T00:14:13;100734.56;;;7.69;75.49
61384;BME280;63511;49.346;8.798;2023-02-21T00:16:57;100733.00;;;7.51;75.90
61384;BME280;63511;49.346;8.798;2023-02-21T00:19:41;100732.69;;;7.28;76.42
61384;BME280;63511;49.346;8.798;2023-02-21T00:22:30;100718.44;;;7.57;74.97
61384;BME280;63511;49.346;8.798;2023-02-21T00:25:14;100717.47;;;7.55;75.21
61384;BME280;63511;49.346;8.798;2023-02-21T00:27:59;100714.75;;;7.34;76.61
61384;BME280;63511;49.346;8.798;2023-02-21T00:30:43;100719.09;;;7.26;76.14
61384;BME280;63511;49.346;8.798;2023-02-21T00:33:28;100708.28;;;6.88;76.75
61384;BME280;63511;49.346;8.798;2023-02-21T00:36:15;100706.09;;;6.82;76.32
61384;BME280;63511;49.346;8.798;2023-02-21T00:39:01;100697.94;;;7.04;76.87
61384;BME280;63511;49.346;8.798;2023-02-21T00:41:45;100705.94;;;7.29;74.85
61384;BME280;63511;49.346;8.798;2023-02-21T00:44:29;100701.78;;;7.29;75.27
61384;BME280;63511;49.346;8.798;2023-02-21T00:47:13;100702.28;;;6.96;75.56
61384;BME280;63511;49.346;8.798;2023-02-21T00:49:56;100699.53;;;6.56;77.01
61384;BME280;63511;49.346;8.798;2023-02-21T00:52:40;100691.25;;;6.75;76.76
61384;BME280;63511;49.346;8.798;2023-02-21T00:55:26;100691.16;;;6.84;75.51
61384;BME280;63511;49.346;8.798;2023-02-21T00:58:10;100693.22;;;6.88;75.10
61384;BME280;63511;49.346;8.798;2023-02-21T01:00:54;100694.19;;;6.90;74.63
61384;BME280;63511;49.346;8.798;2023-02-21T01:03:38;100700.53;;;6.76;76.39
61384;BME280;63511;49.346;8.798;2023-02-21T01:06:22;100691.56;;;6.89;76.42
61384;BME280;63511;49.346;8.798;2023-02-21T01:09:06;100692.47;;;6.70;76.75
61384;BME280;63511;49.346;8.798;2023-02-21T01:11:51;100686.22;;;6.75;76.79
61384;BME280;63511;49.346;8.798;2023-02-21T01:14:35;100687.88;;;6.56;77.84
61384;BME280;63511;49.346;8.798;2023-02-21T01:17:20;100697.78;;;6.73;77.41
61384;BME280;63511;49.346;8.798;2023-02-21T01:20:05;100693.25;;;6.79;76.89
61384;BME280;63511;49.346;8.798;2023-02-21T01:22:49;100697.94;;;7.04;76.53
61384;BME280;63511;49.346;8.798;2023-02-21T01:25:33;100693.66;;;7.03;76.54
61384;BME280;63511;49.346;8.798;2023-02-21T01:28:18;100690.16;;;6.63;77.31
61384;BME280;63511;49.346;8.798;2023-02-21T01:31:02;100694.53;;;7.03;76.64
61384;BME280;63511;49.346;8.798;2023-02-21T01:33:46;100699.50;;;6.74;77.76
61384;BME280;63511;49.346;8.798;2023-02-21T01:36:30;100702.56;;;6.24;78.58
61384;BME280;63511;49.346;8.798;2023-02-21T01:39:14;100700.56;;;6.58;77.74
61384;BME280;63511;49.346;8.798;2023-02-21T01:41:59;100705.47;;;6.29;78.39
61384;BME280;63511;49.346;8.798;2023-02-21T01:44:46;100711.59;;;6.41;78.36
61384;BME280;63511;49.346;8.798;2023-02-21T01:47:31;100705.16;;;6.34;79.90
61384;BME280;63511;49.346;8.798;2023-02-21T01:50:18;100702.94;;;6.56;78.24
61384;BME280;63511;49.346;8.798;2023-02-21T01:53:07;100703.38;;;6.33;78.70
61384;BME280;63511;49.346;8.798;2023-02-21T01:55:53;100702.16;;;6.20;77.76
61384;BME280;63511;49.346;8.798;2023-02-21T01:58:39;100694.47;;;6.00;79.60
61384;BME280;63511;49.346;8.798;2023-02-21T02:01:33;100695.66;;;6.40;77.71
61384;BME280;63511;49.346;8.798;2023-02-21T02:04:18;100697.47;;;6.14;78.72
61384;BME280;63511;49.346;8.798;2023-02-21T02:07:03;100694.72;;;6.03;79.54
61384;BME280;63511;49.346;8.798;2023-02-21T02:09:47;100701.09;;;6.26;77.96
61384;BME280;63511;49.346;8.798;2023-02-21T02:12:45;100693.22;;;5.77;78.26
61384;BME280;63511;49.346;8.798;2023-02-21T02:15:30;100684.91;;;5.95;79.40
61384;BME280;63511;49.346;8.798;2023-02-21T02:21:25;100691.44;;;6.12;77.15
61384;BME280;63511;49.346;8.798;2023-02-21T02:30:46;100694.47;;;5.64;78.94
61384;BME280;63511;49.346;8.798;2023-02-21T02:33:47;100695.94;;;5.97;77.65
61384;BME280;63511;49.346;8.798;2023-02-21T02:36:23;100692.63;;;5.80;77.68
61384;BME280;63511;49.346;8.798;2023-02-21T02:38:59;100689.00;;;5.68;78.55
61384;BME280;63511;49.346;8.798;2023-02-21T02:41:35;100692.19;;;5.75;77.79
61384;BME280;63511;49.346;8.798;2023-02-21T02:44:13;100685.66;;;5.94;76.92
61384;BME280;63511;49.346;8.798;2023-02-21T02:46:42;100691.03;;;5.72;78.44
61384;BME280;63511;49.346;8.798;2023-02-21T02:49:13;100691.16;;;5.46;78.90
61384;BME280;63511;49.346;8.798;2023-02-21T02:51:44;100684.13;;;5.69;78.28
61384;BME280;63511;49.346;8.798;2023-02-21T02:54:11;100691.22;;;6.01;77.29
61384;BME280;63511;49.346;8.798;2023-02-21T02:56:38;100692.63;;;5.80;77.39
61384;BME280;63511;49.346;8.798;2023-02-21T02:59:06;100689.84;;;5.77;77.26
61384;BME280;63511;49.346;8.798;2023-02-21T03:07:30;100694.84;;;5.41;79.19
61384;BME280;63511;49.346;8.798;2023-02-21T03:10:12;100691.31;;;5.39;78.36
61384;BME280;63511;49.346;8.798;2023-02-21T03:12:44;100682.59;;;5.52;77.66
61384;BME280;63511;49.346;8.798;2023-02-21T03:15:17;100685.75;;;5.69;76.61
61384;BME280;63511;49.346;8.798;2023-02-21T03:17:49;100685.66;;;5.59;76.87
61384;BME280;63511;49.346;8.798;2023-02-21T03:20:19;100691.09;;;5.54;78.19
61384;BME280;63511;49.346;8.798;2023-02-21T03:22:48;100689.00;;;5.32;77.20
61384;BME280;63511;49.346;8.798;2023-02-21T03:25:17;100694.84;;;5.41;77.56
61384;BME280;63511;49.346;8.798;2023-02-21T03:27:46;100687.69;;;5.27;78.94
61384;BME280;63511;49.346;8.798;2023-02-21T03:30:13;100690.06;;;5.08;79.22
61384;BME280;63511;49.346;8.798;2023-02-21T03:32:43;100688.75;;;5.11;79.01
61384;BME280;63511;49.346;8.798;2023-02-21T03:35:12;100678.47;;;5.44;78.11
61384;BME280;63511;49.346;8.798;2023-02-21T03:37:40;100685.06;;;5.17;79.10
61384;BME280;63511;49.346;8.798;2023-02-21T03:40:12;100687.94;;;5.38;77.75
61384;BME280;63511;49.346;8.798;2023-02-21T03:42:40;100688.47;;;5.17;78.71
61384;BME280;63511;49.346;8.798;2023-02-21T03:45:07;100693.91;;;5.04;79.09
61384;BME280;63511;49.346;8.798;2023-02-21T03:47:34;100690.41;;;4.94;79.07
61384;BME280;63511;49.346;8.798;2023-02-21T03:50:00;100691.78;;;5.35;77.92
61384;BME280;63511;49.346;8.798;2023-02-21T03:52:29;100700.09;;;5.17;78.37
61384;BME280;63511;49.346;8.798;2023-02-21T03:54:56;100696.19;;;5.29;77.52
61384;BME280;63511;49.346;8.798;2023-02-21T03:57:24;100681.94;;;5.19;78.27
61384;BME280;63511;49.346;8.798;2023-02-21T03:59:50;100695.25;;;4.92;79.78
61384;BME280;63511;49.346;8.798;2023-02-21T04:02:18;100691.69;;;5.16;77.99
61384;BME280;63511;49.346;8.798;2023-02-21T04:04:44;100698.22;;;4.80;78.93
61384;BME280;63511;49.346;8.798;2023-02-21T04:07:13;100686.16;;;4.41;81.56
61384;BME280;63511;49.346;8.798;2023-02-21T04:09:40;100696.16;;;4.67;80.59
61384;BME280;63511;49.346;8.798;2023-02-21T04:12:07;100692.94;;;4.85;79.85
61384;BME280;63511;49.346;8.798;2023-02-21T04:14:35;100691.72;;;4.99;78.75
61384;BME280;63511;49.346;8.798;2023-02-21T04:17:02;100677.47;;;4.89;77.94
61384;BME280;63511;49.346;8.798;2023-02-21T04:19:28;100687.94;;;4.68;79.70
61384;BME280;63511;49.346;8.798;2023-02-21T04:21:55;100687.78;;;4.66;80.59
61384;BME280;63511;49.346;8.798;2023-02-21T04:24:22;100686.44;;;4.96;78.92
61384;BME280;63511;49.346;8.798;2023-02-21T04:26:49;100666.22;;;5.03;77.45
61384;BME280;63511;49.346;8.798;2023-02-21T04:29:15;100679.66;;;4.95;79.16
61384;BME280;63511;49.346;8.798;2023-02-21T04:31:43;100676.88;;;4.92;78.51
61384;BME280;63511;49.346;8.798;2023-02-21T04:34:10;100675.53;;;4.95;78.47
61384;BME280;63511;49.346;8.798;2023-02-21T04:36:37;100681.72;;;4.99;78.17
61384;BME280;63511;49.346;8.798;2023-02-21T04:39:04;100691.31;;;4.86;78.81
61384;BME280;63511;49.346;8.798;2023-02-21T04:41:31;100688.81;;;4.68;79.73
61384;BME280;63511;49.346;8.798;2023-02-21T04:43:58;100694.41;;;4.75;79.35
61384;BME280;63511;49.346;8.798;2023-02-21T04:46:25;100674.22;;;4.90;78.00
61384;BME280;63511;49.346;8.798;2023-02-21T04:48:53;100686.91;;;4.57;78.87
61384;BME280;63511;49.346;8.798;2023-02-21T04:51:21;100685.91;;;4.55;79.61
61384;BME280;63511;49.346;8.798;2023-02-21T04:53:49;100683.22;;;4.62;79.41
61384;BME280;63511;49.346;8.798;2023-02-21T04:56:17;100683.06;;;4.87;77.78
61384;BME280;63511;49.346;8.798;2023-02-21T04:58:45;100686.91;;;4.49;78.23
61384;BME280;63511;49.346;8.798;2023-02-21T05:01:12;100679.25;;;4.30;80.28
61384;BME280;63511;49.346;8.798;2023-02-21T05:03:39;100686.03;;;4.57;79.57
61384;BME280;63511;49.346;8.798;2023-02-21T05:06:07;100683.38;;;4.64;79.36
61384;BME280;63511;49.346;8.798;2023-02-21T05:08:34;100692.91;;;4.16;80.40
61384;BME280;63511;49.346;8.798;2023-02-21T05:11:01;100684.97;;;4.20;80.35
61384;BME280;63511;49.346;8.798;2023-02-21T05:13:28;100694.84;;;4.62;78.47
61384;BME280;63511;49.346;8.798;2023-02-21T05:15:55;100680.75;;;4.54;78.31
61384;BME280;63511;49.346;8.798;2023-02-21T05:18:21;100682.34;;;4.36;78.51
61384;BME280;63511;49.346;8.798;2023-02-21T05:20:52;100685.88;;;4.47;78.09
61384;BME280;63511;49.346;8.798;2023-02-21T05:23:20;100686.78;;;4.39;79.41
61384;BME280;63511;49.346;8.798;2023-02-21T05:25:58;100686.31;;;4.43;79.25
61384;BME280;63511;49.346;8.798;2023-02-21T05:28:25;100689.25;;;4.30;79.23
61384;BME280;63511;49.346;8.798;2023-02-21T05:30:52;100668.31;;;3.95;80.41
61384;BME280;63511;49.346;8.798;2023-02-21T05:33:19;100681.00;;;4.31;79.62
61384;BME280;63511;49.346;8.798;2023-02-21T05:35:45;100685.16;;;4.39;78.58
61384;BME280;63511;49.346;8.798;2023-02-21T05:38:13;100680.75;;;4.54;77.64
61384;BME280;63511;49.346;8.798;2023-02-21T05:40:41;100678.34;;;4.21;79.04
61384;BME280;63511;49.346;8.798;2023-02-21T05:43:07;100662.06;;;4.24;78.61
61384;BME280;63511;49.346;8.798;2023-02-21T05:45:34;100680.88;;;4.38;78.00
61384;BME280;63511;49.346;8.798;2023-02-21T05:48:01;100675.84;;;4.21;78.86
61384;BME280;63511;49.346;8.798;2023-02-21T05:50:28;100683.97;;;4.18;79.95
61384;BME280;63511;49.346;8.798;2023-02-21T05:52:55;100687.06;;;4.50;78.02
61384;BME280;63511;49.346;8.798;2023-02-21T05:55:21;100686.03;;;4.57;77.35
61384;BME280;63511;49.346;8.798;2023-02-21T05:57:49;100693.06;;;4.18;79.24
61384;BME280;63511;49.346;8.798;2023-02-21T06:00:18;100693.50;;;4.22;79.86
61384;BME280;63511;49.346;8.798;2023-02-21T06:02:45;100696.75;;;4.13;79.96
61384;BME280;63511;49.346;8.798;2023-02-21T06:05:12;100693.91;;;4.01;80.18
61384;BME280;63511;49.346;8.798;2023-02-21T06:07:38;100685.41;;;4.08;79.24
61384;BME280;63511;49.346;8.798;2023-02-21T06:10:05;100700.25;;;4.15;78.98
61384;BME280;63511;49.346;8.798;2023-02-21T06:12:31;100699.41;;;4.14;78.22
61384;BME280;63511;49.346;8.798;2023-02-21T06:15:00;100705.13;;;4.31;77.79
61384;BME280;63511;49.346;8.798;2023-02-21T06:17:26;100711.94;;;4.40;77.65
61384;BME280;63511;49.346;8.798;2023-02-21T06:19:54;100700.69;;;4.02;79.12
61384;BME280;63511;49.346;8.798;2023-02-21T06:22:21;100709.16;;;3.87;79.60
61384;BME280;63511;49.346;8.798;2023-02-21T06:24:48;100710.16;;;3.80;80.44
61384;BME280;63511;49.346;8.798;2023-02-21T06:27:14;100703.22;;;4.19;78.26
61384;BME280;63511;49.346;8.798;2023-02-21T06:29:41;100706.69;;;4.04;78.17
61384;BME280;63511;49.346;8.798;2023-02-21T06:32:09;100701.63;;;4.28;77.94
61384;BME280;63511;49.346;8.798;2023-02-21T06:34:35;100704.41;;;4.14;78.63
61384;BME280;63511;49.346;8.798;2023-02-21T06:37:02;100699.97;;;4.20;78.48
61384;BME280;63511;49.346;8.798;2023-02-21T06:39:29;100694.25;;;4.30;77.80
61384;BME280;63511;49.346;8.798;2023-02-21T06:41:56;100697.06;;;4.24;77.38
61384;BME280;63511;49.346;8.798;2023-02-21T06:44:22;100691.84;;;3.97;79.23
61384;BME280;63511;49.346;8.798;2023-02-21T06:46:49;100699.06;;;4.03;78.62
61384;BME280;63511;49.346;8.798;2023-02-21T06:49:17;100689.81;;;4.10;77.97
61384;BME280;63511;49.346;8.798;2023-02-21T06:51:44;100705.13;;;4.31;78.50
61384;BME280;63511;49.346;8.798;2023-02-21T06:54:11;100684.41;;;4.32;77.67
61384;BME280;63511;49.346;8.798;2023-02-21T06:56:38;100707.78;;;4.41;76.89
61384;BME280;63511;49.346;8.798;2023-02-21T06:59:05;100685.72;;;4.28;77.65
61384;BME280;63511;49.346;8.798;2023-02-21T07:01:32;100701.16;;;4.41;77.75
61384;BME280;63511;49.346;8.798;2023-02-21T07:03:59;100692.63;;;4.13;78.88
61384;BME280;63511;49.346;8.798;2023-02-21T07:06:27;100687.16;;;4.00;80.39
61384;BME280;63511;49.346;8.798;2023-02-21T07:08:53;100688.66;;;4.33;78.67
61384;BME280;63511;49.346;8.798;2023-02-21T07:11:20;100681.16;;;4.41;77.86
61384;BME280;63511;49.346;8.798;2023-02-21T07:13:48;100693.53;;;4.57;77.79
61384;BME280;63511;49.346;8.798;2023-02-21T07:16:15;100679.41;;;4.49;77.34
61384;BME280;63511;49.346;8.798;2023-02-21T07:18:42;100682.19;;;4.17;79.46
61384;BME280;63511;49.346;8.798;2023-02-21T07:21:09;100685.41;;;4.25;80.10
61384;BME280;63511;49.346;8.798;2023-02-21T07:23:37;100693.66;;;4.67;78.79
61384;BME280;63511;49.346;8.798;2023-02-21T07:26:04;100701.16;;;4.84;78.38
61384;BME280;63511;49.346;8.798;2023-02-21T07:28:33;100684.50;;;4.93;77.65
61384;BME280;63511;49.346;8.798;2023-02-21T07:30:59;100687.47;;;4.89;78.26
61384;BME280;63511;49.346;8.798;2023-02-21T07:33:26;100695.25;;;5.01;79.13
61384;BME280;63511;49.346;8.798;2023-02-21T07:35:53;100684.63;;;5.12;77.77
61384;BME280;63511;49.346;8.798;2023-02-21T07:38:21;100685.97;;;5.17;78.84
61384;BME280;63511;49.346;8.798;2023-02-21T07:40:50;100687.34;;;5.41;77.57
61384;BME280;63511;49.346;8.798;2023-02-21T07:43:19;100697.94;;;5.47;78.30
61384;BME280;63511;49.346;8.798;2023-02-21T07:45:46;100679.34;;;5.53;77.36
61384;BME280;63511;49.346;8.798;2023-02-21T07:48:12;100680.22;;;5.54;77.12
61384;BME280;63511;49.346;8.798;2023-02-21T07:50:40;100688.94;;;5.76;77.14
61384;BME280;63511;49.346;8.798;2023-02-21T07:53:07;100690.25;;;5.90;78.10
61384;BME280;63511;49.346;8.798;2023-02-21T07:55:33;100690.25;;;5.81;77.34
61384;BME280;63511;49.346;8.798;2023-02-21T07:58:02;100673.22;;;5.69;79.12
61384;BME280;63511;49.346;8.798;2023-02-21T08:00:29;100681.53;;;5.86;79.56
61384;BME280;63511;49.346;8.798;2023-02-21T08:02:56;100692.53;;;6.06;78.54
61384;BME280;63511;49.346;8.798;2023-02-21T08:05:23;100694.81;;;6.13;78.48
61384;BME280;63511;49.346;8.798;2023-02-21T08:07:50;100679.31;;;6.17;78.33
61384;BME280;63511;49.346;8.798;2023-02-21T08:10:21;100685.09;;;6.34;78.26
61384;BME280;63511;49.346;8.798;2023-02-21T08:12:48;100673.88;;;6.12;80.40
61384;BME280;63511;49.346;8.798;2023-02-21T08:15:17;100676.34;;;6.21;81.40
61384;BME280;63511;49.346;8.798;2023-02-21T08:17:46;100680.88;;;6.44;80.33
61384;BME280;63511;49.346;8.798;2023-02-21T08:20:13;100698.22;;;6.69;79.52
61384;BME280;63511;49.346;8.798;2023-02-21T08:22:40;100690.16;;;6.82;78.91
61384;BME280;63511;49.346;8.798;2023-02-21T08:25:09;100691.31;;;7.14;79.20
61384;BME280;63511;49.346;8.798;2023-02-21T08:27:37;100674.19;;;7.10;78.00
61384;BME280;63511;49.346;8.798;2023-02-21T08:30:05;100674.88;;;7.18;77.79
61384;BME280;63511;49.346;8.798;2023-02-21T08:32:34;100677.81;;;7.33;78.14
61384;BME280;63511;49.346;8.798;2023-02-21T08:35:02;100669.53;;;7.34;78.82
61384;BME280;63511;49.346;8.798;2023-02-21T08:37:30;100663.66;;;7.04;79.96
61384;BME280;63511;49.346;8.798;2023-02-21T08:40:00;100666.25;;;7.24;79.18
61384;BME280;63511;49.346;8.798;2023-02-21T08:42:28;100676.88;;;7.51;79.17
61384;BME280;63511;49.346;8.798;2023-02-21T08:44:55;100669.97;;;7.79;77.80
61384;BME280;63511;49.346;8.798;2023-02-21T08:47:21;100669.59;;;8.25;77.19
61384;BME280;63511;49.346;8.798;2023-02-21T08:49:49;100674.78;;;8.36;76.52
61384;BME280;63511;49.346;8.798;2023-02-21T08:52:17;100650.63;;;7.98;77.28
61384;BME280;63511;49.346;8.798;2023-02-21T08:54:45;100673.25;;;8.59;75.81
61384;BME280;63511;49.346;8.798;2023-02-21T08:57:12;100658.97;;;8.79;75.88
61384;BME280;63511;49.346;8.798;2023-02-21T08:59:39;100659.69;;;8.88;76.41
61384;BME280;63511;49.346;8.798;2023-02-21T09:02:14;100664.91;;;9.12;75.38
61384;BME280;63511;49.346;8.798;2023-02-21T09:04:40;100661.00;;;9.37;75.10
61384;BME280;63511;49.346;8.798;2023-02-21T09:07:11;100661.25;;;9.08;74.73
61384;BME280;63511;49.346;8.798;2023-02-21T09:09:38;100656.53;;;9.45;74.64
61384;BME280;63511;49.346;8.798;2023-02-21T09:12:05;100656.09;;;9.72;74.08
61384;BME280;63511;49.346;8.798;2023-02-21T09:14:33;100653.75;;;9.97;74.05
61384;BME280;63511;49.346;8.798;2023-02-21T09:17:00;100651.47;;;10.11;73.11
61384;BME280;63511;49.346;8.798;2023-02-21T09:19:26;100647.09;;;10.09;73.81
61384;BME280;63511;49.346;8.798;2023-02-21T09:21:53;100642.16;;;10.10;72.66
61384;BME280;63511;49.346;8.798;2023-02-21T09:24:23;100641.03;;;10.29;72.14
61384;BME280;63511;49.346;8.798;2023-02-21T09:26:50;100649.03;;;10.35;71.89
61384;BME280;63511;49.346;8.798;2023-02-21T09:29:19;100636.75;;;10.62;72.01
61384;BME280;63511;49.346;8.798;2023-02-21T09:31:46;100645.44;;;10.66;72.16
61384;BME280;63511;49.346;8.798;2023-02-21T09:34:12;100640.91;;;10.97;71.49
61384;BME280;63511;49.346;8.798;2023-02-21T09:36:39;100637.69;;;10.99;72.89
61384;BME280;63511;49.346;8.798;2023-02-21T09:39:06;100641.28;;;11.15;72.49
61384;BME280;63511;49.346;8.798;2023-02-21T09:41:35;100640.00;;;11.44;70.09
61384;BME280;63511;49.346;8.798;2023-02-21T09:44:04;100635.53;;;11.65;70.77
61384;BME280;63511;49.346;8.798;2023-02-21T09:46:35;100634.84;;;11.79;69.58
61384;BME280;63511;49.346;8.798;2023-02-21T09:49:10;100628.09;;;11.55;69.77
61384;BME280;63511;49.346;8.798;2023-02-21T09:51:39;100626.56;;;11.82;69.36
61384;BME280;63511;49.346;8.798;2023-02-21T09:54:14;100628.47;;;11.73;69.18
61384;BME280;63511;49.346;8.798;2023-02-21T09:56:45;100629.53;;;12.01;68.82
61384;BME280;63511;49.346;8.798;2023-02-21T09:59:13;100628.00;;;11.78;68.98
61384;BME280;63511;49.346;8.798;2023-02-21T10:01:48;100621.97;;;12.01;68.08
61384;BME280;63511;49.346;8.798;2023-02-21T10:04:24;100628.91;;;11.92;67.61
61384;BME280;63511;49.346;8.798;2023-02-21T10:06:58;100624.91;;;12.20;67.42
61384;BME280;63511;49.346;8.798;2023-02-21T10:09:37;100618.59;;;12.53;68.07
61384;BME280;63511;49.346;8.798;2023-02-21T10:12:14;100618.59;;;12.80;67.43
61384;BME280;63511;49.346;8.798;2023-02-21T10:14:57;100609.13;;;12.77;66.17
61384;BME280;63511;49.346;8.798;2023-02-21T10:17:30;100609.41;;;12.82;66.35
61384;BME280;63511;49.346;8.798;2023-02-21T10:20:03;100613.09;;;13.00;66.54
61384;BME280;63511;49.346;8.798;2023-02-21T10:22:34;100613.38;;;13.17;66.05
61384;BME280;63511;49.346;8.798;2023-02-21T10:25:15;100617.78;;;12.94;65.56
61384;BME280;63511;49.346;8.798;2023-02-21T10:27:48;100615.63;;;13.00;65.20
61384;BME280;63511;49.346;8.798;2023-02-21T10:30:22;100615.72;;;13.14;65.27
61384;BME280;63511;49.346;8.798;2023-02-21T10:32:51;100613.88;;;12.99;65.17
61384;BME280;63511;49.346;8.798;2023-02-21T10:35:18;100614.53;;;13.23;65.00
61384;BME280;63511;49.346;8.798;2023-02-21T10:38:58;100611.91;;;13.49;63.10
61384;BME280;63511;49.346;8.798;2023-02-21T10:41:00;100612.53;;;13.59;63.36
61384;BME280;63511;49.346;8.798;2023-02-21T10:43:31;100605.19;;;13.64;63.23
61384;BME280;63511;49.346;8.798;2023-02-21T10:46:03;100603.88;;;13.56;62.94
61384;BME280;63511;49.346;8.798;2023-02-21T10:48:34;100608.31;;;13.45;63.71
61384;BME280;63511;49.346;8.798;2023-02-21T10:51:07;100602.09;;;13.83;62.22
61384;BME280;63511;49.346;8.798;2023-02-21T10:53:35;100602.38;;;13.59;62.84
61384;BME280;63511;49.346;8.798;2023-02-21T10:56:13;100596.66;;;13.91;60.74
61384;BME280;63511;49.346;8.798;2023-02-21T10:58:45;100591.94;;;14.12;61.02
61384;BME280;63511;49.346;8.798;2023-02-21T11:01:17;100593.44;;;14.09;61.74
61384;BME280;63511;49.346;8.798;2023-02-21T11:03:48;100598.22;;;13.75;61.64
61384;BME280;63511;49.346;8.798;2023-02-21T11:06:26;100586.06;;;14.28;61.62
61384;BME280;63511;49.346;8.798;2023-02-21T11:08:58;100584.91;;;14.23;62.02
61384;BME280;63511;49.346;8.798;2023-02-21T11:11:34;100572.81;;;14.33;61.49
61384;BME280;63511;49.346;8.798;2023-02-21T11:14:19;100569.41;;;14.33;60.97
61384;BME280;63511;49.346;8.798;2023-02-21T11:17:12;100576.16;;;14.47;60.96
61384;BME280;63511;49.346;8.798;2023-02-21T11:19:48;100565.28;;;14.50;59.55
61384;BME280;63511;49.346;8.798;2023-02-21T11:22:18;100563.09;;;14.56;59.51
61384;BME280;63511;49.346;8.798;2023-02-21T11:24:56;100563.38;;;14.93;57.63
61384;BME280;63511;49.346;8.798;2023-02-21T11:27:28;100558.59;;;14.82;57.64
61384;BME280;63511;49.346;8.798;2023-02-21T11:29:56;100556.56;;;15.08;58.22
61384;BME280;63511;49.346;8.798;2023-02-21T11:32:29;100549.44;;;15.17;55.80
61384;BME280;63511;49.346;8.798;2023-02-21T11:35:02;100547.19;;;14.91;58.23
61384;BME280;63511;49.346;8.798;2023-02-21T11:37:29;100531.53;;;15.31;57.31
61384;BME280;63511;49.346;8.798;2023-02-21T11:39:57;100544.16;;;15.46;57.09
61384;BME280;63511;49.346;8.798;2023-02-21T11:42:29;100532.66;;;15.53;58.07
61384;BME280;63511;49.346;8.798;2023-02-21T11:45:13;100522.31;;;15.84;56.75
61384;BME280;63511;49.346;8.798;2023-02-21T11:47:45;100509.94;;;15.73;55.30
61384;BME280;63511;49.346;8.798;2023-02-21T11:50:14;100520.28;;;15.94;55.87
61384;BME280;63511;49.346;8.798;2023-02-21T11:52:48;100514.25;;;16.10;55.43
61384;BME280;63511;49.346;8.798;2023-02-21T11:55:19;100515.94;;;15.58;56.09
61384;BME280;63511;49.346;8.798;2023-02-21T11:58:02;100511.56;;;15.55;56.49
61384;BME280;63511;49.346;8.798;2023-02-21T12:00:37;100501.09;;;16.01;54.61
61384;BME280;63511;49.346;8.798;2023-02-21T12:03:29;100496.97;;;16.40;55.61
61384;BME280;63511;49.346;8.798;2023-02-21T12:06:02;100490.81;;;15.99;54.03
61384;BME280;63511;49.346;8.798;2023-02-21T12:08:39;100480.56;;;16.15;55.21
61384;BME280;63511;49.346;8.798;2023-02-21T12:11:29;100482.06;;;16.30;53.70
61384;BME280;63511;49.346;8.798;2023-02-21T12:14:10;100471.91;;;15.94;54.97
61384;BME280;63511;49.346;8.798;2023-02-21T12:16:45;100471.25;;;16.16;56.42
61384;BME280;63511;49.346;8.798;2023-02-21T12:19:28;100464.69;;;16.03;54.46
61384;BME280;63511;49.346;8.798;2023-02-21T12:22:01;100454.59;;;16.42;54.72
61384;BME280;63511;49.346;8.798;2023-02-21T12:24:42;100457.41;;;15.93;53.72
61384;BME280;63511;49.346;8.798;2023-02-21T12:27:17;100447.63;;;16.94;54.17
61384;BME280;63511;49.346;8.798;2023-02-21T12:30:13;100438.19;;;17.12;52.41
61384;BME280;63511;49.346;8.798;2023-02-21T12:33:01;100436.72;;;16.60;55.19
61384;BME280;63511;49.346;8.798;2023-02-21T12:36:02;100424.84;;;17.38;52.71
61384;BME280;63511;49.346;8.798;2023-02-21T12:38:58;100421.56;;;17.22;51.47
61384;BME280;63511;49.346;8.798;2023-02-21T12:41:37;100414.53;;;17.16;51.96
61384;BME280;63511;49.346;8.798;2023-02-21T12:44:12;100406.94;;;17.18;52.00
61384;BME280;63511;49.346;8.798;2023-02-21T12:46:44;100409.63;;;17.21;51.33
61384;BME280;63511;49.346;8.798;2023-02-21T12:49:17;100414.47;;;16.94;51.05
61384;BME280;63511;49.346;8.798;2023-02-21T12:51:51;100394.53;;;17.06;49.71
61384;BME280;63511;49.346;8.798;2023-02-21T12:54:25;100402.47;;;17.12;49.09
61384;BME280;63511;49.346;8.798;2023-02-21T12:56:56;100395.53;;;16.89;47.97
61384;BME280;63511;49.346;8.798;2023-02-21T12:59:29;100396.09;;;16.45;48.57
61384;BME280;63511;49.346;8.798;2023-02-21T13:02:03;100390.31;;;16.49;48.30
61384;BME280;63511;49.346;8.798;2023-02-21T13:04:41;100381.91;;;16.88;49.28
61384;BME280;63511;49.346;8.798;2023-02-21T13:07:13;100374.25;;;16.88;47.21
61384;BME280;63511;49.346;8.798;2023-02-21T13:09:53;100373.31;;;16.86;48.42
61384;BME280;63511;49.346;8.798;2023-02-21T13:12:25;100375.97;;;16.89;48.05
61384;BME280;63511;49.346;8.798;2023-02-21T13:14:57;100370.84;;;17.29;47.58
61384;BME280;63511;49.346;8.798;2023-02-21T13:17:26;100370.97;;;17.32;46.28
61384;BME280;63511;49.346;8.798;2023-02-21T13:19:59;100370.66;;;17.46;48.11
61384;BME280;63511;49.346;8.798;2023-02-21T13:26:07;100362.00;;;17.42;46.90
61384;BME280;63511;49.346;8.798;2023-02-21T13:28:36;100349.50;;;17.07;45.81
61384;BME280;63511;49.346;8.798;2023-02-21T13:31:05;100348.69;;;17.28;46.71
61384;BME280;63511;49.346;8.798;2023-02-21T13:33:41;100360.94;;;17.37;46.00
61384;BME280;63511;49.346;8.798;2023-02-21T13:36:22;100356.84;;;16.99;44.41
61384;BME280;63511;49.346;8.798;2023-02-21T13:39:02;100352.81;;;17.04;44.74
61384;BME280;63511;49.346;8.798;2023-02-21T13:41:33;100343.94;;;17.17;45.25
61384;BME280;63511;49.346;8.798;2023-02-21T13:44:05;100340.78;;;17.02;45.60
61384;BME280;63511;49.346;8.798;2023-02-21T13:47:03;100327.47;;;17.52;47.11